Time;durP1;ratioP1;P1;durP2;ratioP2;P2;SDS_P1;SDS_P2;PMS_P1;PMS_P2;Temp;Humidity;BMP_temperature;BMP_pressure;BME280_temperature;BME280_humidity;BME280_pressure;Samples;Min_cycle;Max_cycle;Signal;HPM_P1;HPM_P2
2021/12/30 00:00:06;;;;;;;;;;;14.70;99.90;;;;;;5073438;28;19920;-76
2021/12/30 00:02:32;;;;;;;;;;;14.80;99.90;;;;;;5075226;28;19916;-78
2021/12/30 00:04:58;;;;;;;;;;;14.70;99.90;;;;;;5075043;28;20292;-78
2021/12/30 00:07:24;;;;;;;;;;;14.70;99.90;;;;;;5075018;28;19908;-76
2021/12/30 00:09:50;;;;;;;;;;;14.70;99.90;;;;;;5074971;28;19962;-77
2021/12/30 00:12:15;;;;;;;;;;;14.70;99.90;;;;;;5074725;28;20385;-77
2021/12/30 00:14:41;;;;;;;;;;;14.70;99.90;;;;;;5074799;28;19944;-78
2021/12/30 00:17:07;;;;;;;;;;;14.70;99.90;;;;;;5074992;28;20388;-77
2021/12/30 00:19:32;;;;;;;;;;;14.70;99.90;;;;;;5074916;28;19914;-78
2021/12/30 00:21:58;;;;;;;;;;;14.70;99.90;;;;;;5074895;28;19909;-78
2021/12/30 00:24:23;;;;;;;;;;;14.70;99.90;;;;;;5074693;28;19957;-75
2021/12/30 00:26:49;;;;;;;;;;;14.70;99.90;;;;;;5075121;28;19908;-77
2021/12/30 00:29:14;;;;;;;;;;;14.70;99.90;;;;;;5075016;28;20473;-76
2021/12/30 00:31:40;;;;;;;;;;;14.70;99.90;;;;;;5074571;28;19908;-77
2021/12/30 00:34:06;;;;;;;;;;;14.70;99.90;;;;;;5074487;28;20285;-77
2021/12/30 00:36:31;;;;;;;;;;;14.60;99.90;;;;;;5073178;28;19954;-76
2021/12/30 00:38:57;;;;;;;;;;;14.70;99.90;;;;;;5074391;28;20003;-77
2021/12/30 00:41:23;;;;;;;;;;;14.60;99.90;;;;;;5074309;28;19921;-77
2021/12/30 00:43:48;;;;;;;;;;;14.60;99.90;;;;;;5074428;28;20272;-77
2021/12/30 00:46:14;;;;;;;;;;;14.50;99.90;;;;;;5074105;28;19908;-76
2021/12/30 00:48:40;;;;;;;;;;;14.50;99.90;;;;;;5072971;28;19931;-76
2021/12/30 00:51:06;;;;;;;;;;;14.50;99.90;;;;;;5074417;28;19956;-76
2021/12/30 00:53:32;;;;;;;;;;;14.50;99.90;;;;;;5074114;28;19908;-77
2021/12/30 00:55:58;;;;;;;;;;;14.50;99.90;;;;;;5074323;28;20038;-78
2021/12/30 00:58:23;;;;;;;;;;;14.50;99.90;;;;;;5074225;28;19909;-76
2021/12/30 01:00:49;;;;;;;;;;;14.50;99.90;;;;;;5074006;28;19909;-76
2021/12/30 01:03:15;;;;;;;;;;;14.50;99.90;;;;;;5074017;28;20465;-78
2021/12/30 01:05:41;;;;;;;;;;;14.50;99.90;;;;;;5074157;28;19909;-76
2021/12/30 01:08:07;;;;;;;;;;;14.50;99.90;;;;;;5073972;28;20295;-76
2021/12/30 01:10:34;;;;;;;;;;;14.50;99.90;;;;;;5073963;28;19991;-77
2021/12/30 01:13:05;;;;;;;;;;;14.50;99.90;;;;;;5072756;28;19920;-77
2021/12/30 01:15:45;;;;;;;;;;;14.50;99.90;;;;;;5072270;28;19920;-77
2021/12/30 01:18:38;;;;;;;;;;;14.50;99.90;;;;;;5074195;28;19962;-76
2021/12/30 01:21:05;;;;;;;;;;;14.50;99.90;;;;;;5073825;28;20357;-78
2021/12/30 01:23:31;;;;;;;;;;;14.50;99.90;;;;;;5073751;28;20426;-77
2021/12/30 01:25:56;;;;;;;;;;;14.50;99.90;;;;;;5073727;28;19912;-78
2021/12/30 01:28:23;;;;;;;;;;;14.50;99.90;;;;;;5073765;28;19909;-76
2021/12/30 01:30:48;;;;;;;;;;;14.50;99.90;;;;;;5073673;28;19931;-78
2021/12/30 01:33:14;;;;;;;;;;;14.50;99.90;;;;;;5074053;28;20372;-77
2021/12/30 01:35:40;;;;;;;;;;;14.50;99.90;;;;;;5072274;28;19912;-77
2021/12/30 01:38:11;;;;;;;;;;;14.50;99.90;;;;;;5073528;28;19919;-77
2021/12/30 01:40:36;;;;;;;;;;;14.50;99.90;;;;;;5073593;28;20002;-78
2021/12/30 01:43:02;;;;;;;;;;;14.50;99.90;;;;;;5073777;28;19943;-76
2021/12/30 01:45:28;;;;;;;;;;;14.50;99.90;;;;;;5073566;28;20330;-77
2021/12/30 01:47:54;;;;;;;;;;;14.40;99.90;;;;;;5073530;28;19908;-75
2021/12/30 01:50:21;;;;;;;;;;;14.30;99.90;;;;;;5073495;28;20285;-77
2021/12/30 01:52:47;;;;;;;;;;;14.30;99.90;;;;;;5073480;28;20293;-78
2021/12/30 01:55:13;;;;;;;;;;;14.20;99.90;;;;;;5073337;28;20009;-77
2021/12/30 01:57:39;;;;;;;;;;;14.10;99.90;;;;;;5073432;28;19915;-77
2021/12/30 02:00:06;;;;;;;;;;;14.00;99.90;;;;;;5073418;28;19909;-76
2021/12/30 02:02:32;;;;;;;;;;;14.00;99.90;;;;;;5073320;28;19958;-77
2021/12/30 02:04:58;;;;;;;;;;;14.00;99.90;;;;;;5073369;28;19948;-77
2021/12/30 02:07:23;;;;;;;;;;;14.00;99.90;;;;;;5073402;28;19995;-77
2021/12/30 02:09:50;;;;;;;;;;;13.90;99.90;;;;;;5072007;28;19908;-76
2021/12/30 02:12:16;;;;;;;;;;;13.80;99.90;;;;;;5071752;28;20019;-77
2021/12/30 02:14:41;;;;;;;;;;;13.80;99.90;;;;;;5071793;28;19991;-76
2021/12/30 02:17:07;;;;;;;;;;;13.70;99.90;;;;;;5071932;28;19908;-75
2021/12/30 02:19:34;;;;;;;;;;;13.70;99.90;;;;;;5073182;28;20441;-78
2021/12/30 02:21:59;;;;;;;;;;;13.80;99.90;;;;;;5073216;28;19916;-77
2021/12/30 02:24:25;;;;;;;;;;;13.70;99.90;;;;;;5075979;28;19912;-76
2021/12/30 02:26:51;;;;;;;;;;;13.70;99.90;;;;;;5077017;28;19908;-77
2021/12/30 02:29:17;;;;;;;;;;;13.70;99.90;;;;;;5075666;28;19908;-78
2021/12/30 02:31:43;;;;;;;;;;;13.70;99.90;;;;;;5076903;28;19954;-76
2021/12/30 02:34:09;;;;;;;;;;;13.60;99.90;;;;;;5076976;28;19962;-78
2021/12/30 02:36:36;;;;;;;;;;;13.60;99.90;;;;;;5077042;28;19956;-76
2021/12/30 02:39:04;;;;;;;;;;;13.60;99.90;;;;;;5075455;28;19915;-77
2021/12/30 02:41:33;;;;;;;;;;;13.70;99.90;;;;;;5076625;28;20266;-77
2021/12/30 02:43:59;;;;;;;;;;;13.60;99.90;;;;;;5076663;28;19908;-78
2021/12/30 02:46:28;;;;;;;;;;;13.70;99.90;;;;;;5076571;28;19915;-76
2021/12/30 02:48:54;;;;;;;;;;;13.70;99.90;;;;;;5075288;28;19916;-76
2021/12/30 02:51:20;;;;;;;;;;;13.80;99.90;;;;;;5076547;28;20365;-77
2021/12/30 02:53:46;;;;;;;;;;;13.80;99.90;;;;;;5076394;28;19919;-78
2021/12/30 02:56:12;;;;;;;;;;;13.90;99.90;;;;;;5076584;28;19920;-76
2021/12/30 02:58:37;;;;;;;;;;;14.00;99.90;;;;;;5075091;28;19996;-76
2021/12/30 03:01:13;;;;;;;;;;;14.00;99.90;;;;;;5076309;28;20369;-78
2021/12/30 03:03:39;;;;;;;;;;;14.10;99.90;;;;;;5076287;28;19908;-77
2021/12/30 03:06:05;;;;;;;;;;;14.00;99.90;;;;;;5076405;28;19909;-77
2021/12/30 03:08:31;;;;;;;;;;;14.00;99.90;;;;;;5074915;28;20361;-77
2021/12/30 03:10:56;;;;;;;;;;;14.00;99.90;;;;;;5076027;28;19954;-76
2021/12/30 03:13:30;;;;;;;;;;;13.90;99.90;;;;;;5075886;28;19920;-78
2021/12/30 03:16:17;;;;;;;;;;;14.00;99.90;;;;;;5076223;28;19920;-78
2021/12/30 03:18:43;;;;;;;;;;;14.00;99.90;;;;;;5074472;28;20042;-76
2021/12/30 03:21:10;;;;;;;;;;;14.00;99.90;;;;;;5075934;28;19920;-77
2021/12/30 03:23:36;;;;;;;;;;;14.00;99.90;;;;;;5075897;28;20379;-77
2021/12/30 03:26:02;;;;;;;;;;;14.10;99.90;;;;;;5075884;28;19916;-76
2021/12/30 03:28:28;;;;;;;;;;;14.10;99.90;;;;;;5075862;28;19908;-76
2021/12/30 03:30:58;;;;;;;;;;;14.10;99.90;;;;;;5075870;28;20391;-77
2021/12/30 03:33:24;;;;;;;;;;;14.20;99.90;;;;;;5074211;28;19909;-77
2021/12/30 03:35:50;;;;;;;;;;;14.00;99.90;;;;;;5074810;28;20007;-77
2021/12/30 03:38:15;;;;;;;;;;;14.10;99.90;;;;;;5075636;28;19919;-77
2021/12/30 03:40:41;;;;;;;;;;;14.10;99.90;;;;;;5075496;28;20372;-77
2021/12/30 03:43:06;;;;;;;;;;;14.20;99.90;;;;;;5075699;28;19909;-76
2021/12/30 03:45:32;;;;;;;;;;;14.20;99.90;;;;;;5074204;28;19915;-78
2021/12/30 03:47:58;;;;;;;;;;;14.30;99.90;;;;;;5075473;28;19981;-75
2021/12/30 03:50:27;;;;;;;;;;;14.20;99.90;;;;;;5075404;28;19909;-77
2021/12/30 03:52:55;;;;;;;;;;;14.30;99.90;;;;;;5075515;28;19957;-77
2021/12/30 03:55:22;;;;;;;;;;;14.30;99.90;;;;;;5075316;28;19912;-76
2021/12/30 03:57:48;;;;;;;;;;;14.40;99.90;;;;;;5075300;28;19908;-77
2021/12/30 04:00:14;;;;;;;;;;;14.40;99.90;;;;;;5073928;28;19909;-77
2021/12/30 04:02:40;;;;;;;;;;;14.40;99.90;;;;;;5075313;28;20042;-77
2021/12/30 04:05:06;;;;;;;;;;;14.50;99.90;;;;;;5075254;28;19934;-76
2021/12/30 04:07:31;;;;;;;;;;;14.50;99.90;;;;;;5075059;28;20412;-76
2021/12/30 04:09:57;;;;;;;;;;;14.50;99.90;;;;;;5075271;28;19915;-77
2021/12/30 04:12:23;;;;;;;;;;;14.50;99.90;;;;;;5074951;28;20312;-78
2021/12/30 04:14:48;;;;;;;;;;;14.50;99.90;;;;;;5074779;28;19912;-75
2021/12/30 04:17:14;;;;;;;;;;;14.60;99.90;;;;;;5073590;28;20287;-76
2021/12/30 04:19:40;;;;;;;;;;;14.60;99.90;;;;;;5074820;28;19931;-75
2021/12/30 04:22:05;;;;;;;;;;;14.60;99.90;;;;;;5075108;28;20003;-77
2021/12/30 04:24:31;;;;;;;;;;;14.60;99.90;;;;;;5074870;28;19916;-77
2021/12/30 04:26:57;;;;;;;;;;;14.50;99.90;;;;;;5074681;28;19931;-77
2021/12/30 04:29:22;;;;;;;;;;;14.50;99.90;;;;;;5074708;28;19908;-77
2021/12/30 04:31:48;;;;;;;;;;;14.50;99.90;;;;;;5074610;28;20288;-77
2021/12/30 04:34:14;;;;;;;;;;;14.50;99.90;;;;;;5074473;28;20003;-75
2021/12/30 04:36:40;;;;;;;;;;;14.50;99.90;;;;;;5074501;28;19993;-78
2021/12/30 04:39:06;;;;;;;;;;;14.50;99.90;;;;;;5074533;28;19956;-77
2021/12/30 04:41:32;;;;;;;;;;;14.50;99.90;;;;;;5074316;28;20038;-77
2021/12/30 04:43:57;;;;;;;;;;;14.50;99.90;;;;;;5074768;28;19948;-76
2021/12/30 04:46:23;;;;;;;;;;;14.50;99.90;;;;;;5074585;28;19920;-76
2021/12/30 04:48:49;;;;;;;;;;;14.50;99.90;;;;;;5074496;28;19958;-77
2021/12/30 04:51:16;;;;;;;;;;;14.50;99.90;;;;;;5074235;28;20388;-75
2021/12/30 04:53:42;;;;;;;;;;;14.60;99.90;;;;;;5074112;28;19909;-76
2021/12/30 04:56:07;;;;;;;;;;;14.50;99.90;;;;;;5072805;28;19909;-76
2021/12/30 04:58:33;;;;;;;;;;;14.50;99.90;;;;;;5074384;28;19908;-77
2021/12/30 05:00:58;;;;;;;;;;;14.50;99.90;;;;;;5074242;28;20407;-76
2021/12/30 05:03:24;;;;;;;;;;;14.50;99.90;;;;;;5072722;28;19909;-77
2021/12/30 05:05:51;;;;;;;;;;;14.50;99.90;;;;;;5072698;28;19999;-77
2021/12/30 05:08:19;;;;;;;;;;;14.50;99.90;;;;;;5072639;28;20003;-77
2021/12/30 05:10:45;;;;;;;;;;;14.50;99.90;;;;;;5073999;28;19915;-76
2021/12/30 05:13:11;;;;;;;;;;;14.60;99.90;;;;;;5073304;28;19920;-77
2021/12/30 05:15:37;;;;;;;;;;;14.50;99.90;;;;;;5074107;28;20400;-77
2021/12/30 05:18:05;;;;;;;;;;;14.50;99.90;;;;;;5073323;28;20196;-77
2021/12/30 05:20:31;;;;;;;;;;;14.50;99.90;;;;;;5072554;28;19915;-77
2021/12/30 05:22:56;;;;;;;;;;;14.60;99.90;;;;;;5073792;28;19908;-77
2021/12/30 05:25:22;;;;;;;;;;;14.60;99.90;;;;;;5073972;28;19908;-76
2021/12/30 05:27:50;;;;;;;;;;;14.60;99.90;;;;;;5073965;28;19908;-76
2021/12/30 05:30:16;;;;;;;;;;;14.60;99.90;;;;;;5073830;28;19912;-78
2021/12/30 05:32:42;;;;;;;;;;;14.60;99.90;;;;;;5073708;28;20028;-77
2021/12/30 05:35:09;;;;;;;;;;;14.60;99.90;;;;;;5073537;28;20428;-76
2021/12/30 05:37:35;;;;;;;;;;;14.60;99.90;;;;;;5073549;28;19916;-76
2021/12/30 05:40:01;;;;;;;;;;;14.60;99.90;;;;;;5073521;28;19909;-76
2021/12/30 05:42:26;;;;;;;;;;;14.60;99.90;;;;;;5072291;28;19912;-77
2021/12/30 05:44:53;;;;;;;;;;;14.50;99.90;;;;;;5073617;28;19912;-78
2021/12/30 05:47:18;;;;;;;;;;;14.50;99.90;;;;;;5073491;28;20281;-77
2021/12/30 05:49:44;;;;;;;;;;;14.60;99.90;;;;;;5073776;28;19915;-78
2021/12/30 05:52:10;;;;;;;;;;;14.50;99.90;;;;;;5072196;28;20007;-77
2021/12/30 05:54:36;;;;;;;;;;;14.60;99.90;;;;;;5073475;28;20364;-77
2021/12/30 05:57:02;;;;;;;;;;;14.60;99.90;;;;;;5073446;28;19958;-77
2021/12/30 05:59:27;;;;;;;;;;;14.60;99.90;;;;;;5076625;28;19909;-76
2021/12/30 06:01:53;;;;;;;;;;;14.60;99.90;;;;;;5077810;28;19909;-77
2021/12/30 06:04:18;;;;;;;;;;;14.60;99.90;;;;;;5077661;28;19909;-77
2021/12/30 06:06:44;;;;;;;;;;;14.60;99.90;;;;;;5077382;28;19977;-76
2021/12/30 06:09:10;;;;;;;;;;;14.60;99.90;;;;;;5077351;28;19915;-77
2021/12/30 06:11:36;;;;;;;;;;;14.60;99.90;;;;;;5077447;28;19924;-78
2021/12/30 06:14:02;;;;;;;;;;;14.60;99.90;;;;;;5075868;28;20407;-78
2021/12/30 06:16:27;;;;;;;;;;;14.50;99.90;;;;;;5077224;28;19913;-77
2021/12/30 06:18:53;;;;;;;;;;;14.50;99.90;;;;;;5077136;28;19908;-77
2021/12/30 06:21:18;;;;;;;;;;;14.50;99.90;;;;;;5075807;28;20377;-76
2021/12/30 06:23:44;;;;;;;;;;;14.50;99.90;;;;;;5075764;28;19909;-76
2021/12/30 06:26:09;;;;;;;;;;;14.50;99.90;;;;;;5076970;28;20392;-76
2021/12/30 06:28:35;;;;;;;;;;;14.50;99.90;;;;;;5077231;28;19995;-77
2021/12/30 06:31:01;;;;;;;;;;;14.40;99.90;;;;;;5077113;28;19958;-76
2021/12/30 06:33:26;;;;;;;;;;;14.40;99.90;;;;;;5076776;28;20392;-78
2021/12/30 06:35:52;;;;;;;;;;;14.30;99.90;;;;;;5076646;28;19912;-76
2021/12/30 06:38:18;;;;;;;;;;;14.30;99.90;;;;;;5077130;28;19908;-76
2021/12/30 06:40:43;;;;;;;;;;;14.30;99.90;;;;;;5076690;28;20277;-75
2021/12/30 06:43:09;;;;;;;;;;;14.30;99.90;;;;;;5076651;28;19920;-77
2021/12/30 06:45:35;;;;;;;;;;;14.30;99.90;;;;;;5076851;28;19908;-76
2021/12/30 06:48:00;;;;;;;;;;;14.40;99.90;;;;;;5076829;28;20002;-77
2021/12/30 06:50:31;;;;;;;;;;;14.40;99.90;;;;;;5076667;28;19913;-77
2021/12/30 06:52:56;;;;;;;;;;;14.50;99.90;;;;;;5074919;28;19913;-76
2021/12/30 06:55:22;;;;;;;;;;;14.50;99.90;;;;;;5076432;28;19913;-77
2021/12/30 06:57:48;;;;;;;;;;;14.50;99.90;;;;;;5076900;28;19909;-76
2021/12/30 07:00:13;;;;;;;;;;;14.50;99.90;;;;;;5076346;28;19915;-76
2021/12/30 07:02:43;;;;;;;;;;;14.40;99.90;;;;;;5076300;28;19919;-77
2021/12/30 07:05:09;;;;;;;;;;;14.40;99.90;;;;;;5075008;28;20315;-76
2021/12/30 07:07:34;;;;;;;;;;;14.40;99.90;;;;;;5076215;28;19914;-76
2021/12/30 07:10:00;;;;;;;;;;;14.40;99.90;;;;;;5074984;28;20270;-76
2021/12/30 07:12:26;;;;;;;;;;;14.40;99.90;;;;;;5075950;28;19931;-76
2021/12/30 07:14:51;;;;;;;;;;;14.40;99.90;;;;;;5076168;28;19912;-76
2021/12/30 07:17:17;;;;;;;;;;;14.40;99.90;;;;;;5076265;28;19909;-77
2021/12/30 07:19:42;;;;;;;;;;;14.40;99.90;;;;;;5076084;28;20437;-76
2021/12/30 07:22:08;;;;;;;;;;;14.40;99.90;;;;;;5075995;28;19997;-75
2021/12/30 07:24:34;;;;;;;;;;;14.50;99.90;;;;;;5076372;28;19932;-75
2021/12/30 07:26:59;;;;;;;;;;;14.40;99.90;;;;;;5076212;28;19958;-77
2021/12/30 07:29:25;;;;;;;;;;;14.40;99.90;;;;;;5076103;28;20373;-77
2021/12/30 07:31:50;;;;;;;;;;;14.40;99.90;;;;;;5075799;28;19974;-78
2021/12/30 07:34:16;;;;;;;;;;;14.50;99.90;;;;;;5075680;28;19916;-77
2021/12/30 07:36:41;;;;;;;;;;;14.50;99.90;;;;;;5075881;28;19931;-77
2021/12/30 07:39:07;;;;;;;;;;;14.50;99.90;;;;;;5075684;28;19916;-76
2021/12/30 07:41:33;;;;;;;;;;;14.50;99.90;;;;;;5075568;28;20377;-77
2021/12/30 07:43:58;;;;;;;;;;;14.50;99.90;;;;;;5075599;28;19909;-77
2021/12/30 07:46:24;;;;;;;;;;;14.40;99.90;;;;;;5075573;28;19961;-77
2021/12/30 07:48:50;;;;;;;;;;;14.50;99.90;;;;;;5074199;28;20007;-77
2021/12/30 07:51:15;;;;;;;;;;;14.50;99.90;;;;;;5075731;28;19913;-75
2021/12/30 07:53:41;;;;;;;;;;;14.50;99.90;;;;;;5075386;28;19908;-76
2021/12/30 07:56:07;;;;;;;;;;;14.50;99.90;;;;;;5075434;28;19934;-77
2021/12/30 07:58:33;;;;;;;;;;;14.50;99.90;;;;;;5074062;28;19909;-74
2021/12/30 08:00:58;;;;;;;;;;;14.50;99.90;;;;;;5075273;28;20387;-76
2021/12/30 08:03:24;;;;;;;;;;;14.50;99.90;;;;;;5075659;28;19908;-75
2021/12/30 08:05:51;;;;;;;;;;;14.50;99.90;;;;;;5073868;28;20000;-77
2021/12/30 08:08:16;;;;;;;;;;;14.40;99.90;;;;;;5075007;28;19951;-78
2021/12/30 08:10:42;;;;;;;;;;;14.40;99.90;;;;;;5074753;28;19944;-77
2021/12/30 08:13:08;;;;;;;;;;;14.40;99.90;;;;;;5074475;28;19928;-76
2021/12/30 08:15:33;;;;;;;;;;;14.50;99.90;;;;;;5075344;28;19920;-78
2021/12/30 08:17:59;;;;;;;;;;;14.50;99.90;;;;;;5073618;28;19962;-77
2021/12/30 08:20:24;;;;;;;;;;;14.60;99.90;;;;;;5073470;28;19909;-76
2021/12/30 08:22:51;;;;;;;;;;;14.60;99.90;;;;;;5074535;28;19991;-75
2021/12/30 08:25:17;;;;;;;;;;;14.70;99.90;;;;;;5074777;28;19912;-77
2021/12/30 08:27:43;;;;;;;;;;;14.70;99.90;;;;;;5074709;28;19908;-76
2021/12/30 08:30:10;;;;;;;;;;;14.70;99.90;;;;;;5074656;28;20357;-74
2021/12/30 08:32:35;;;;;;;;;;;14.70;99.90;;;;;;5074569;28;19915;-76
2021/12/30 08:35:01;;;;;;;;;;;14.70;99.90;;;;;;5074577;28;20006;-76
2021/12/30 08:37:26;;;;;;;;;;;14.70;99.90;;;;;;5074741;28;19908;-76
2021/12/30 08:39:52;;;;;;;;;;;14.70;99.90;;;;;;5074339;28;19912;-78
2021/12/30 08:42:21;;;;;;;;;;;14.70;99.90;;;;;;5073108;28;19908;-77
2021/12/30 08:44:47;;;;;;;;;;;14.70;99.90;;;;;;5073137;28;19912;-77
2021/12/30 08:47:13;;;;;;;;;;;14.60;99.90;;;;;;5074352;28;20305;-77
2021/12/30 08:49:41;;;;;;;;;;;14.60;99.90;;;;;;5074336;28;19908;-76
2021/12/30 08:52:08;;;;;;;;;;;14.70;99.90;;;;;;5074428;28;19962;-76
2021/12/30 08:54:35;;;;;;;;;;;14.60;99.90;;;;;;5074150;28;19912;-77
2021/12/30 08:57:01;;;;;;;;;;;14.50;99.90;;;;;;5072885;28;19932;-78
2021/12/30 08:59:26;;;;;;;;;;;14.60;99.90;;;;;;5074493;28;20369;-78
2021/12/30 09:01:52;;;;;;;;;;;14.60;99.90;;;;;;5072763;28;19909;-76
2021/12/30 09:04:17;;;;;;;;;;;14.50;99.90;;;;;;5072695;28;20364;-78
2021/12/30 09:06:43;;;;;;;;;;;14.60;99.90;;;;;;5074053;28;19915;-77
2021/12/30 09:09:08;;;;;;;;;;;14.60;99.90;;;;;;5073990;28;19908;-76
2021/12/30 09:11:34;;;;;;;;;;;14.70;99.90;;;;;;5074160;28;19916;-77
2021/12/30 09:14:00;;;;;;;;;;;14.80;99.90;;;;;;5072614;28;20011;-76
2021/12/30 09:16:25;;;;;;;;;;;14.80;99.90;;;;;;5073920;28;20361;-76
2021/12/30 09:18:51;;;;;;;;;;;14.80;99.90;;;;;;5074327;28;19909;-77
2021/12/30 09:21:16;;;;;;;;;;;14.90;99.90;;;;;;5074236;28;19916;-77
2021/12/30 09:23:42;;;;;;;;;;;14.90;99.90;;;;;;5073997;28;20373;-78
2021/12/30 09:26:08;;;;;;;;;;;15.00;99.90;;;;;;5073761;28;19916;-77
2021/12/30 09:28:33;;;;;;;;;;;14.90;99.90;;;;;;5073760;28;19916;-78
2021/12/30 09:30:59;;;;;;;;;;;14.90;99.90;;;;;;5073668;28;19909;-76
2021/12/30 09:33:24;;;;;;;;;;;14.90;99.90;;;;;;5073256;28;19909;-78
2021/12/30 09:35:50;;;;;;;;;;;14.90;99.90;;;;;;5073727;28;20284;-78
2021/12/30 09:38:16;;;;;;;;;;;14.90;99.90;;;;;;5073838;28;19912;-78
2021/12/30 09:40:42;;;;;;;;;;;14.80;99.90;;;;;;5073676;28;19915;-78
2021/12/30 09:43:09;;;;;;;;;;;14.80;99.90;;;;;;5072338;28;20373;-77
2021/12/30 09:45:37;;;;;;;;;;;14.80;99.90;;;;;;5073748;28;20358;-76
2021/12/30 09:48:05;;;;;;;;;;;14.90;99.90;;;;;;5073562;28;19916;-76
2021/12/30 09:50:32;;;;;;;;;;;15.00;99.90;;;;;;5073599;28;20056;-76
2021/12/30 09:52:59;;;;;;;;;;;15.20;99.90;;;;;;5072232;28;19916;-77
2021/12/30 09:55:25;;;;;;;;;;;15.20;99.90;;;;;;5073606;28;19919;-77
2021/12/30 09:57:55;;;;;;;;;;;15.30;99.90;;;;;;5072165;28;19995;-76
2021/12/30 10:00:21;;;;;;;;;;;15.20;99.90;;;;;;5073521;28;19956;-77
2021/12/30 10:02:46;;;;;;;;;;;15.20;99.90;;;;;;5073431;28;19939;-78
2021/12/30 10:05:17;;;;;;;;;;;15.20;99.90;;;;;;5073407;28;19923;-76
2021/12/30 10:07:43;;;;;;;;;;;15.20;99.90;;;;;;5073585;28;19995;-76
2021/12/30 10:10:25;;;;;;;;;;;15.20;99.90;;;;;;5072035;28;19909;-78
2021/12/30 10:12:50;;;;;;;;;;;15.20;99.90;;;;;;5073193;28;19921;-78
2021/12/30 10:15:16;;;;;;;;;;;15.40;99.90;;;;;;5071923;28;19916;-78
2021/12/30 10:17:41;;;;;;;;;;;15.40;99.90;;;;;;5073865;28;19999;-78
2021/12/30 10:20:18;;;;;;;;;;;15.40;99.90;;;;;;5071935;28;19916;-76
2021/12/30 10:22:46;;;;;;;;;;;15.50;99.90;;;;;;5073551;28;19909;-77
2021/12/30 10:25:29;;;;;;;;;;;15.60;99.90;;;;;;5073391;28;19908;-78
2021/12/30 10:27:55;;;;;;;;;;;15.60;99.90;;;;;;5073174;28;19908;-76
2021/12/30 10:30:30;;;;;;;;;;;15.80;99.90;;;;;;5073218;28;19908;-77
2021/12/30 10:33:13;;;;;;;;;;;16.10;99.90;;;;;;5073236;28;20308;-78
2021/12/30 10:35:39;;;;;;;;;;;16.30;99.90;;;;;;5073285;28;20294;-79
2021/12/30 10:38:09;;;;;;;;;;;16.40;99.90;;;;;;5073185;28;19908;-76
2021/12/30 10:40:35;;;;;;;;;;;16.30;99.90;;;;;;5071655;28;19908;-76
2021/12/30 10:43:25;;;;;;;;;;;16.30;99.90;;;;;;5073557;28;19915;-76
2021/12/30 10:46:05;;;;;;;;;;;16.40;99.90;;;;;;5074366;28;19993;-77
2021/12/30 10:48:32;;;;;;;;;;;16.40;99.90;;;;;;5076560;28;19908;-77
2021/12/30 10:51:10;;;;;;;;;;;16.50;99.90;;;;;;5076533;28;20455;-77
2021/12/30 10:53:37;;;;;;;;;;;16.60;99.90;;;;;;5076507;28;19916;-77
2021/12/30 10:56:19;;;;;;;;;;;16.60;99.90;;;;;;5075127;28;19912;-78
2021/12/30 10:58:44;;;;;;;;;;;16.50;99.90;;;;;;5076458;28;19916;-76
2021/12/30 11:01:17;;;;;;;;;;;16.50;99.90;;;;;;5076387;28;19909;-78
2021/12/30 11:03:50;;;;;;;;;;;16.60;99.90;;;;;;5076932;28;19908;-76
2021/12/30 11:06:19;;;;;;;;;;;16.70;99.90;;;;;;5076272;28;19950;-76
2021/12/30 11:08:49;;;;;;;;;;;16.60;99.90;;;;;;5076317;28;19908;-78
2021/12/30 11:11:25;;;;;;;;;;;16.60;99.90;;;;;;5076007;28;19917;-78
2021/12/30 11:14:03;;;;;;;;;;;16.30;99.90;;;;;;5076138;28;19919;-76
2021/12/30 11:16:29;;;;;;;;;;;16.50;99.90;;;;;;5076038;28;19912;-76
2021/12/30 11:18:57;;;;;;;;;;;16.30;99.90;;;;;;5074740;28;19915;-75
2021/12/30 11:21:39;;;;;;;;;;;16.50;99.90;;;;;;5076034;28;19908;-76
2021/12/30 11:24:05;;;;;;;;;;;16.50;99.90;;;;;;5076324;28;19912;-77
2021/12/30 11:26:31;;;;;;;;;;;16.50;99.90;;;;;;5076051;28;19915;-77
2021/12/30 11:28:57;;;;;;;;;;;16.50;99.90;;;;;;5075905;28;19961;-77
2021/12/30 11:31:23;;;;;;;;;;;16.30;99.90;;;;;;5074574;28;19912;-77
2021/12/30 11:33:48;;;;;;;;;;;16.50;99.90;;;;;;5074512;28;19908;-77
2021/12/30 11:36:16;;;;;;;;;;;16.50;99.90;;;;;;5076035;28;20010;-77
2021/12/30 11:38:42;;;;;;;;;;;16.70;99.90;;;;;;5075875;28;20385;-76
2021/12/30 11:41:14;;;;;;;;;;;16.40;99.90;;;;;;5075610;28;19947;-77
2021/12/30 11:43:41;;;;;;;;;;;16.40;99.90;;;;;;5075709;28;20408;-78
2021/12/30 11:46:06;;;;;;;;;;;16.50;99.90;;;;;;5075936;28;19961;-77
2021/12/30 11:48:38;;;;;;;;;;;16.40;99.90;;;;;;5075683;28;20003;-77
2021/12/30 11:51:11;;;;;;;;;;;16.40;99.90;;;;;;5075592;28;19909;-77
2021/12/30 11:53:40;;;;;;;;;;;16.50;99.90;;;;;;5075670;28;19912;-78
2021/12/30 11:56:25;;;;;;;;;;;16.50;99.90;;;;;;5074933;28;19919;-77
2021/12/30 11:58:52;;;;;;;;;;;16.60;99.90;;;;;;5075288;28;20281;-75
2021/12/30 12:01:27;;;;;;;;;;;16.50;99.90;;;;;;5075248;28;20284;-77
2021/12/30 12:03:53;;;;;;;;;;;16.50;99.90;;;;;;5075278;28;20353;-77
2021/12/30 12:06:27;;;;;;;;;;;16.50;99.90;;;;;;5073863;28;19908;-76
2021/12/30 12:08:53;;;;;;;;;;;16.50;99.90;;;;;;5075259;28;19909;-76
2021/12/30 12:11:19;;;;;;;;;;;16.60;99.90;;;;;;5073511;28;20418;-77
2021/12/30 12:13:46;;;;;;;;;;;16.50;99.90;;;;;;5075082;28;19908;-78
2021/12/30 12:16:35;;;;;;;;;;;16.40;99.90;;;;;;5073558;28;19913;-78
2021/12/30 12:19:04;;;;;;;;;;;16.60;99.90;;;;;;5066407;28;19912;-78
2021/12/30 12:21:39;;;;;;;;;;;16.50;99.90;;;;;;5074833;28;19944;-76
2021/12/30 12:24:20;;;;;;;;;;;16.60;99.90;;;;;;5074839;28;19915;-78
2021/12/30 12:26:46;;;;;;;;;;;16.60;99.90;;;;;;5074698;28;19996;-77
2021/12/30 12:29:26;;;;;;;;;;;16.70;99.90;;;;;;5074680;28;20353;-76
2021/12/30 12:31:56;;;;;;;;;;;16.70;99.90;;;;;;5074646;28;19935;-77
2021/12/30 12:34:34;;;;;;;;;;;16.80;99.90;;;;;;5074455;28;19912;-77
2021/12/30 12:36:59;;;;;;;;;;;17.10;99.90;;;;;;5073237;28;19938;-76
2021/12/30 12:39:35;;;;;;;;;;;17.20;99.90;;;;;;5074472;28;19909;-77
2021/12/30 12:42:01;;;;;;;;;;;17.30;99.90;;;;;;5074479;28;19959;-77
2021/12/30 12:44:29;;;;;;;;;;;17.60;99.90;;;;;;5074439;28;20384;-77
2021/12/30 12:46:54;;;;;;;;;;;17.90;99.90;;;;;;5073076;28;19909;-78
2021/12/30 12:49:32;;;;;;;;;;;18.30;99.90;;;;;;5074353;28;19943;-75
2021/12/30 12:51:57;;;;;;;;;;;18.90;99.90;;;;;;5074259;28;20003;-77
2021/12/30 12:54:32;;;;;;;;;;;18.60;99.90;;;;;;5074194;28;19967;-77
2021/12/30 12:57:04;;;;;;;;;;;18.70;99.90;;;;;;5074331;28;19908;-78
2021/12/30 12:59:33;;;;;;;;;;;18.60;99.90;;;;;;5074413;28;19912;-78
2021/12/30 13:01:59;;;;;;;;;;;18.60;99.90;;;;;;5074144;28;19944;-76
2021/12/30 13:04:24;;;;;;;;;;;18.30;99.90;;;;;;5072722;28;19915;-78
2021/12/30 13:06:50;;;;;;;;;;;18.20;99.90;;;;;;5072679;28;20369;-76
2021/12/30 13:09:17;;;;;;;;;;;18.20;99.90;;;;;;5071814;28;19916;-76
2021/12/30 13:11:50;;;;;;;;;;;18.10;99.90;;;;;;5073726;28;20265;-78
2021/12/30 13:14:17;;;;;;;;;;;18.10;99.90;;;;;;5073835;28;20407;-76
2021/12/30 13:16:44;;;;;;;;;;;18.20;99.90;;;;;;5073930;28;19954;-77
2021/12/30 13:19:18;;;;;;;;;;;18.20;99.90;;;;;;5073833;28;19919;-76
2021/12/30 13:21:46;;;;;;;;;;;18.20;99.90;;;;;;5074044;28;20016;-78
2021/12/30 13:24:28;;;;;;;;;;;18.40;99.90;;;;;;5073945;28;20308;-77
2021/12/30 13:26:54;;;;;;;;;;;18.30;99.90;;;;;;5072491;28;20416;-76
2021/12/30 13:29:24;;;;;;;;;;;18.20;99.90;;;;;;5072479;28;19997;-76
2021/12/30 13:31:57;;;;;;;;;;;18.20;99.90;;;;;;5073907;28;19908;-76
2021/12/30 13:34:22;;;;;;;;;;;18.20;99.90;;;;;;5073595;28;19916;-78
2021/12/30 13:36:48;;;;;;;;;;;18.30;99.90;;;;;;5073604;28;20058;-77
2021/12/30 13:39:14;;;;;;;;;;;18.00;99.90;;;;;;5072302;28;19908;-76
2021/12/30 13:41:56;;;;;;;;;;;17.90;99.90;;;;;;5073470;28;19916;-76
2021/12/30 13:44:23;;;;;;;;;;;17.90;99.90;;;;;;5071963;28;19974;-77
2021/12/30 13:46:48;;;;;;;;;;;18.00;99.90;;;;;;5073518;28;19944;-77
2021/12/30 13:49:15;;;;;;;;;;;18.10;99.90;;;;;;5073495;28;19982;-77
2021/12/30 13:51:40;;;;;;;;;;;18.10;99.90;;;;;;5072223;28;19916;-77
2021/12/30 13:54:08;;;;;;;;;;;18.10;99.90;;;;;;5073351;28;19912;-77
2021/12/30 13:56:33;;;;;;;;;;;18.10;99.90;;;;;;5073478;28;19908;-77
2021/12/30 13:59:02;;;;;;;;;;;17.90;99.90;;;;;;5073472;28;20474;-77
2021/12/30 14:01:30;;;;;;;;;;;17.90;99.90;;;;;;5073450;28;20280;-78
2021/12/30 14:04:13;;;;;;;;;;;17.80;99.90;;;;;;5072089;28;20058;-76
2021/12/30 14:06:40;;;;;;;;;;;17.80;99.90;;;;;;5072063;28;20360;-75
2021/12/30 14:09:13;;;;;;;;;;;17.60;99.90;;;;;;5073824;28;20460;-78
2021/12/30 14:11:40;;;;;;;;;;;17.30;99.90;;;;;;5073066;28;19943;-78
2021/12/30 14:14:07;;;;;;;;;;;17.30;99.90;;;;;;5073164;28;19931;-75
2021/12/30 14:16:46;;;;;;;;;;;17.40;99.90;;;;;;5073240;28;19908;-77